sensor_id;sensor_type;location;lat;lon;timestamp;P1;durP1;ratioP1;P2;durP2;ratioP2
25045;SDS011;13044;49.304;12.840;2023-07-22T00:00:48;3.10;;;1.98;;
25045;SDS011;13044;49.304;12.840;2023-07-22T00:03:15;1.85;;;1.75;;
25045;SDS011;13044;49.304;12.840;2023-07-22T00:05:42;2.40;;;2.20;;
25045;SDS011;13044;49.304;12.840;2023-07-22T00:08:10;2.22;;;2.00;;
25045;SDS011;13044;49.304;12.840;2023-07-22T00:10:40;3.13;;;2.10;;
25045;SDS011;13044;49.304;12.840;2023-07-22T00:13:08;2.22;;;2.00;;
25045;SDS011;13044;49.304;12.840;2023-07-22T00:15:35;2.80;;;2.20;;
25045;SDS011;13044;49.304;12.840;2023-07-22T00:18:02;2.67;;;2.03;;
25045;SDS011;13044;49.304;12.840;2023-07-22T00:20:29;3.00;;;1.83;;
25045;SDS011;13044;49.304;12.840;2023-07-22T00:22:56;2.90;;;2.38;;
25045;SDS011;13044;49.304;12.840;2023-07-22T00:25:23;2.40;;;2.20;;
25045;SDS011;13044;49.304;12.840;2023-07-22T00:27:50;2.67;;;2.05;;
25045;SDS011;13044;49.304;12.840;2023-07-22T00:30:17;2.60;;;2.40;;
25045;SDS011;13044;49.304;12.840;2023-07-22T00:32:44;3.83;;;2.50;;
25045;SDS011;13044;49.304;12.840;2023-07-22T00:35:11;2.75;;;2.35;;
25045;SDS011;13044;49.304;12.840;2023-07-22T00:37:38;2.35;;;2.15;;
25045;SDS011;13044;49.304;12.840;2023-07-22T00:40:05;4.28;;;2.35;;
25045;SDS011;13044;49.304;12.840;2023-07-22T00:42:38;3.78;;;2.63;;
25045;SDS011;13044;49.304;12.840;2023-07-22T00:45:06;2.40;;;2.20;;
25045;SDS011;13044;49.304;12.840;2023-07-22T00:47:34;2.55;;;2.17;;
25045;SDS011;13044;49.304;12.840;2023-07-22T00:50:02;3.15;;;2.50;;
25045;SDS011;13044;49.304;12.840;2023-07-22T00:52:30;4.00;;;2.60;;
25045;SDS011;13044;49.304;12.840;2023-07-22T00:54:57;3.17;;;2.60;;
25045;SDS011;13044;49.304;12.840;2023-07-22T00:57:24;3.75;;;2.70;;
25045;SDS011;13044;49.304;12.840;2023-07-22T00:59:51;3.97;;;2.80;;
25045;SDS011;13044;49.304;12.840;2023-07-22T01:02:19;2.17;;;1.98;;
25045;SDS011;13044;49.304;12.840;2023-07-22T01:04:46;3.10;;;2.75;;
25045;SDS011;13044;49.304;12.840;2023-07-22T01:07:13;3.33;;;2.42;;
25045;SDS011;13044;49.304;12.840;2023-07-22T01:09:40;3.25;;;2.20;;
25045;SDS011;13044;49.304;12.840;2023-07-22T01:12:09;2.50;;;2.30;;
25045;SDS011;13044;49.304;12.840;2023-07-22T01:14:38;2.30;;;2.10;;
25045;SDS011;13044;49.304;12.840;2023-07-22T01:17:08;2.88;;;2.00;;
25045;SDS011;13044;49.304;12.840;2023-07-22T01:19:36;2.30;;;2.10;;
25045;SDS011;13044;49.304;12.840;2023-07-22T01:22:04;2.53;;;2.33;;
25045;SDS011;13044;49.304;12.840;2023-07-22T01:24:34;2.45;;;2.22;;
25045;SDS011;13044;49.304;12.840;2023-07-22T01:27:02;4.10;;;2.60;;
25045;SDS011;13044;49.304;12.840;2023-07-22T01:29:29;3.33;;;2.40;;
25045;SDS011;13044;49.304;12.840;2023-07-22T01:31:56;2.38;;;2.17;;
25045;SDS011;13044;49.304;12.840;2023-07-22T01:34:23;2.63;;;2.25;;
25045;SDS011;13044;49.304;12.840;2023-07-22T01:36:51;3.20;;;2.10;;
25045;SDS011;13044;49.304;12.840;2023-07-22T01:39:19;4.95;;;3.13;;
25045;SDS011;13044;49.304;12.840;2023-07-22T01:41:45;2.55;;;2.35;;
25045;SDS011;13044;49.304;12.840;2023-07-22T01:44:12;3.22;;;2.70;;
25045;SDS011;13044;49.304;12.840;2023-07-22T01:46:40;2.60;;;2.40;;
25045;SDS011;13044;49.304;12.840;2023-07-22T01:49:09;2.10;;;1.90;;
25045;SDS011;13044;49.304;12.840;2023-07-22T01:51:38;2.95;;;2.60;;
25045;SDS011;13044;49.304;12.840;2023-07-22T01:54:09;2.67;;;2.25;;
25045;SDS011;13044;49.304;12.840;2023-07-22T01:56:37;3.67;;;2.92;;
25045;SDS011;13044;49.304;12.840;2023-07-22T01:59:05;4.50;;;3.00;;
25045;SDS011;13044;49.304;12.840;2023-07-22T02:01:32;4.00;;;2.58;;
25045;SDS011;13044;49.304;12.840;2023-07-22T02:03:59;2.90;;;2.60;;
25045;SDS011;13044;49.304;12.840;2023-07-22T02:06:26;2.88;;;2.40;;
25045;SDS011;13044;49.304;12.840;2023-07-22T02:08:55;2.67;;;2.35;;
25045;SDS011;13044;49.304;12.840;2023-07-22T02:11:22;5.05;;;3.03;;
25045;SDS011;13044;49.304;12.840;2023-07-22T02:13:49;3.83;;;2.67;;
25045;SDS011;13044;49.304;12.840;2023-07-22T02:16:16;4.78;;;3.25;;
25045;SDS011;13044;49.304;12.840;2023-07-22T02:18:45;5.32;;;3.25;;
25045;SDS011;13044;49.304;12.840;2023-07-22T02:21:12;4.32;;;2.92;;
25045;SDS011;13044;49.304;12.840;2023-07-22T02:23:39;3.65;;;3.25;;
25045;SDS011;13044;49.304;12.840;2023-07-22T02:26:06;5.75;;;3.70;;
25045;SDS011;13044;49.304;12.840;2023-07-22T02:28:33;6.53;;;3.70;;
25045;SDS011;13044;49.304;12.840;2023-07-22T02:31:01;4.57;;;3.00;;
25045;SDS011;13044;49.304;12.840;2023-07-22T02:33:33;3.25;;;2.42;;
25045;SDS011;13044;49.304;12.840;2023-07-22T02:36:01;4.22;;;3.10;;
25045;SDS011;13044;49.304;12.840;2023-07-22T02:38:28;3.47;;;2.63;;
25045;SDS011;13044;49.304;12.840;2023-07-22T02:40:54;3.97;;;2.80;;
25045;SDS011;13044;49.304;12.840;2023-07-22T02:43:27;2.60;;;2.15;;
25045;SDS011;13044;49.304;12.840;2023-07-22T02:45:55;2.42;;;2.22;;
25045;SDS011;13044;49.304;12.840;2023-07-22T02:48:22;4.25;;;2.50;;
25045;SDS011;13044;49.304;12.840;2023-07-22T02:50:48;2.83;;;2.42;;
25045;SDS011;13044;49.304;12.840;2023-07-22T02:53:16;2.95;;;2.65;;
25045;SDS011;13044;49.304;12.840;2023-07-22T02:55:42;3.45;;;2.33;;
25045;SDS011;13044;49.304;12.840;2023-07-22T02:58:09;3.75;;;2.55;;
25045;SDS011;13044;49.304;12.840;2023-07-22T03:00:38;2.85;;;2.63;;
25045;SDS011;13044;49.304;12.840;2023-07-22T03:03:04;4.15;;;2.75;;
25045;SDS011;13044;49.304;12.840;2023-07-22T03:05:32;3.08;;;2.63;;
25045;SDS011;13044;49.304;12.840;2023-07-22T03:07:58;3.10;;;2.80;;
25045;SDS011;13044;49.304;12.840;2023-07-22T03:10:25;3.63;;;2.83;;
25045;SDS011;13044;49.304;12.840;2023-07-22T03:12:52;4.25;;;2.88;;
25045;SDS011;13044;49.304;12.840;2023-07-22T03:15:22;3.50;;;2.53;;
25045;SDS011;13044;49.304;12.840;2023-07-22T03:17:49;3.17;;;2.80;;
25045;SDS011;13044;49.304;12.840;2023-07-22T03:20:16;2.60;;;2.40;;
25045;SDS011;13044;49.304;12.840;2023-07-22T03:22:45;5.75;;;2.35;;
25045;SDS011;13044;49.304;12.840;2023-07-22T03:25:13;2.63;;;2.38;;
25045;SDS011;13044;49.304;12.840;2023-07-22T03:27:44;3.78;;;2.63;;
25045;SDS011;13044;49.304;12.840;2023-07-22T03:30:14;10.90;;;2.15;;
25045;SDS011;13044;49.304;12.840;2023-07-22T03:32:46;2.50;;;2.30;;
25045;SDS011;13044;49.304;12.840;2023-07-22T03:35:15;2.97;;;2.50;;
25045;SDS011;13044;49.304;12.840;2023-07-22T03:37:44;2.35;;;2.15;;
25045;SDS011;13044;49.304;12.840;2023-07-22T03:40:11;3.17;;;2.42;;
25045;SDS011;13044;49.304;12.840;2023-07-22T03:42:41;3.03;;;2.45;;
25045;SDS011;13044;49.304;12.840;2023-07-22T03:45:08;2.45;;;2.20;;
25045;SDS011;13044;49.304;12.840;2023-07-22T03:47:38;2.33;;;2.13;;
25045;SDS011;13044;49.304;12.840;2023-07-22T03:50:06;4.55;;;2.75;;
25045;SDS011;13044;49.304;12.840;2023-07-22T03:52:34;3.20;;;2.60;;
25045;SDS011;13044;49.304;12.840;2023-07-22T03:55:01;3.88;;;2.55;;
25045;SDS011;13044;49.304;12.840;2023-07-22T03:57:28;3.97;;;2.58;;
25045;SDS011;13044;49.304;12.840;2023-07-22T03:59:55;3.13;;;2.38;;
25045;SDS011;13044;49.304;12.840;2023-07-22T04:02:23;3.03;;;2.55;;
25045;SDS011;13044;49.304;12.840;2023-07-22T04:04:51;3.35;;;2.65;;
25045;SDS011;13044;49.304;12.840;2023-07-22T04:07:20;4.85;;;2.45;;
25045;SDS011;13044;49.304;12.840;2023-07-22T04:09:48;2.78;;;2.42;;
25045;SDS011;13044;49.304;12.840;2023-07-22T04:12:15;3.45;;;2.50;;
25045;SDS011;13044;49.304;12.840;2023-07-22T04:14:43;2.60;;;2.40;;
25045;SDS011;13044;49.304;12.840;2023-07-22T04:17:10;2.42;;;2.22;;
25045;SDS011;13044;49.304;12.840;2023-07-22T04:19:37;2.42;;;2.22;;
25045;SDS011;13044;49.304;12.840;2023-07-22T04:22:04;2.97;;;2.50;;
25045;SDS011;13044;49.304;12.840;2023-07-22T04:24:31;3.38;;;2.40;;
25045;SDS011;13044;49.304;12.840;2023-07-22T04:26:58;2.50;;;2.30;;
25045;SDS011;13044;49.304;12.840;2023-07-22T04:29:26;3.42;;;2.55;;
25045;SDS011;13044;49.304;12.840;2023-07-22T04:31:57;3.58;;;2.70;;
25045;SDS011;13044;49.304;12.840;2023-07-22T04:34:29;4.45;;;2.70;;
25045;SDS011;13044;49.304;12.840;2023-07-22T04:36:57;2.90;;;2.45;;
25045;SDS011;13044;49.304;12.840;2023-07-22T04:39:25;3.17;;;2.70;;
25045;SDS011;13044;49.304;12.840;2023-07-22T04:41:52;3.63;;;2.83;;
25045;SDS011;13044;49.304;12.840;2023-07-22T04:44:19;3.08;;;2.60;;
25045;SDS011;13044;49.304;12.840;2023-07-22T04:46:46;3.35;;;2.33;;
25045;SDS011;13044;49.304;12.840;2023-07-22T04:49:13;3.15;;;2.85;;
25045;SDS011;13044;49.304;12.840;2023-07-22T04:51:44;3.95;;;2.83;;
25045;SDS011;13044;49.304;12.840;2023-07-22T04:54:12;3.58;;;3.10;;
25045;SDS011;13044;49.304;12.840;2023-07-22T04:56:41;2.92;;;2.50;;
25045;SDS011;13044;49.304;12.840;2023-07-22T04:59:08;3.08;;;2.67;;
25045;SDS011;13044;49.304;12.840;2023-07-22T05:01:36;2.75;;;2.47;;
25045;SDS011;13044;49.304;12.840;2023-07-22T05:04:03;2.53;;;2.22;;
25045;SDS011;13044;49.304;12.840;2023-07-22T05:06:32;2.50;;;2.30;;
25045;SDS011;13044;49.304;12.840;2023-07-22T05:08:59;2.47;;;2.28;;
25045;SDS011;13044;49.304;12.840;2023-07-22T05:11:26;3.80;;;2.95;;
25045;SDS011;13044;49.304;12.840;2023-07-22T05:13:53;3.10;;;2.60;;
25045;SDS011;13044;49.304;12.840;2023-07-22T05:16:20;2.47;;;2.28;;
25045;SDS011;13044;49.304;12.840;2023-07-22T05:18:48;2.38;;;2.17;;
25045;SDS011;13044;49.304;12.840;2023-07-22T05:21:15;2.60;;;2.13;;
25045;SDS011;13044;49.304;12.840;2023-07-22T05:23:42;4.20;;;3.08;;
25045;SDS011;13044;49.304;12.840;2023-07-22T05:26:09;2.75;;;2.47;;
25045;SDS011;13044;49.304;12.840;2023-07-22T05:28:36;3.17;;;2.65;;
25045;SDS011;13044;49.304;12.840;2023-07-22T05:31:03;2.95;;;2.65;;
25045;SDS011;13044;49.304;12.840;2023-07-22T05:33:30;2.78;;;2.53;;
25045;SDS011;13044;49.304;12.840;2023-07-22T05:35:57;4.15;;;3.00;;
25045;SDS011;13044;49.304;12.840;2023-07-22T05:38:24;3.15;;;2.67;;
25045;SDS011;13044;49.304;12.840;2023-07-22T05:40:52;3.35;;;2.83;;
25045;SDS011;13044;49.304;12.840;2023-07-22T05:43:20;2.75;;;2.22;;
25045;SDS011;13044;49.304;12.840;2023-07-22T05:45:48;3.17;;;2.35;;
25045;SDS011;13044;49.304;12.840;2023-07-22T05:48:15;2.50;;;2.30;;
25045;SDS011;13044;49.304;12.840;2023-07-22T05:50:42;4.60;;;2.80;;
25045;SDS011;13044;49.304;12.840;2023-07-22T05:53:09;3.40;;;2.17;;
25045;SDS011;13044;49.304;12.840;2023-07-22T05:55:37;3.30;;;2.50;;
25045;SDS011;13044;49.304;12.840;2023-07-22T05:58:03;3.03;;;2.47;;
25045;SDS011;13044;49.304;12.840;2023-07-22T06:00:34;3.03;;;2.58;;
25045;SDS011;13044;49.304;12.840;2023-07-22T06:03:01;2.42;;;2.22;;
25045;SDS011;13044;49.304;12.840;2023-07-22T06:05:29;3.58;;;2.30;;
25045;SDS011;13044;49.304;12.840;2023-07-22T06:07:56;2.67;;;2.38;;
25045;SDS011;13044;49.304;12.840;2023-07-22T06:10:23;4.55;;;2.30;;
25045;SDS011;13044;49.304;12.840;2023-07-22T06:12:51;3.08;;;2.45;;
25045;SDS011;13044;49.304;12.840;2023-07-22T06:15:18;3.22;;;2.38;;
25045;SDS011;13044;49.304;12.840;2023-07-22T06:17:45;2.58;;;2.33;;
25045;SDS011;13044;49.304;12.840;2023-07-22T06:20:12;3.47;;;2.42;;
25045;SDS011;13044;49.304;12.840;2023-07-22T06:22:39;3.58;;;2.58;;
25045;SDS011;13044;49.304;12.840;2023-07-22T06:25:07;4.25;;;2.75;;
25045;SDS011;13044;49.304;12.840;2023-07-22T06:27:34;3.88;;;2.83;;
25045;SDS011;13044;49.304;12.840;2023-07-22T06:30:02;2.78;;;2.40;;
25045;SDS011;13044;49.304;12.840;2023-07-22T06:32:29;4.53;;;2.53;;
25045;SDS011;13044;49.304;12.840;2023-07-22T06:34:57;4.00;;;2.50;;
25045;SDS011;13044;49.304;12.840;2023-07-22T06:37:24;2.95;;;2.45;;
25045;SDS011;13044;49.304;12.840;2023-07-22T06:39:52;2.35;;;2.13;;
25045;SDS011;13044;49.304;12.840;2023-07-22T06:42:19;2.33;;;2.05;;
25045;SDS011;13044;49.304;12.840;2023-07-22T06:44:46;2.58;;;2.38;;
25045;SDS011;13044;49.304;12.840;2023-07-22T06:47:13;2.90;;;2.63;;
25045;SDS011;13044;49.304;12.840;2023-07-22T06:49:41;3.92;;;2.97;;
25045;SDS011;13044;49.304;12.840;2023-07-22T06:52:12;3.10;;;2.80;;
25045;SDS011;13044;49.304;12.840;2023-07-22T06:54:39;3.17;;;2.60;;
25045;SDS011;13044;49.304;12.840;2023-07-22T06:57:06;3.45;;;2.40;;
25045;SDS011;13044;49.304;12.840;2023-07-22T06:59:34;2.80;;;2.33;;
25045;SDS011;13044;49.304;12.840;2023-07-22T07:02:01;3.28;;;2.80;;
25045;SDS011;13044;49.304;12.840;2023-07-22T07:04:28;3.67;;;2.80;;
25045;SDS011;13044;49.304;12.840;2023-07-22T07:06:55;3.20;;;2.33;;
25045;SDS011;13044;49.304;12.840;2023-07-22T07:09:22;6.25;;;2.47;;
25045;SDS011;13044;49.304;12.840;2023-07-22T07:11:49;2.45;;;2.25;;
25045;SDS011;13044;49.304;12.840;2023-07-22T07:14:16;3.50;;;2.30;;
25045;SDS011;13044;49.304;12.840;2023-07-22T07:16:44;3.42;;;2.80;;
25045;SDS011;13044;49.304;12.840;2023-07-22T07:19:11;4.07;;;2.55;;
25045;SDS011;13044;49.304;12.840;2023-07-22T07:21:38;3.30;;;2.70;;
25045;SDS011;13044;49.304;12.840;2023-07-22T07:24:05;4.00;;;2.53;;
25045;SDS011;13044;49.304;12.840;2023-07-22T07:26:32;2.40;;;2.10;;
25045;SDS011;13044;49.304;12.840;2023-07-22T07:28:59;2.50;;;2.30;;
25045;SDS011;13044;49.304;12.840;2023-07-22T07:31:26;2.30;;;2.10;;
25045;SDS011;13044;49.304;12.840;2023-07-22T07:33:56;3.92;;;2.10;;
25045;SDS011;13044;49.304;12.840;2023-07-22T07:36:23;3.63;;;2.50;;
25045;SDS011;13044;49.304;12.840;2023-07-22T07:38:50;2.85;;;2.10;;
25045;SDS011;13044;49.304;12.840;2023-07-22T07:41:17;2.47;;;2.22;;
25045;SDS011;13044;49.304;12.840;2023-07-22T07:43:44;2.53;;;2.10;;
25045;SDS011;13044;49.304;12.840;2023-07-22T07:46:35;3.15;;;2.42;;
25045;SDS011;13044;49.304;12.840;2023-07-22T07:49:00;2.28;;;2.08;;
25045;SDS011;13044;49.304;12.840;2023-07-22T07:51:28;2.60;;;2.38;;
25045;SDS011;13044;49.304;12.840;2023-07-22T07:53:58;2.45;;;2.25;;
25045;SDS011;13044;49.304;12.840;2023-07-22T07:56:26;4.43;;;2.50;;
25045;SDS011;13044;49.304;12.840;2023-07-22T07:58:53;3.38;;;2.13;;
25045;SDS011;13044;49.304;12.840;2023-07-22T08:01:21;2.55;;;2.08;;
25045;SDS011;13044;49.304;12.840;2023-07-22T08:03:48;2.90;;;2.10;;
25045;SDS011;13044;49.304;12.840;2023-07-22T08:06:15;6.35;;;2.63;;
25045;SDS011;13044;49.304;12.840;2023-07-22T08:08:45;5.95;;;2.22;;
25045;SDS011;13044;49.304;12.840;2023-07-22T08:11:13;3.22;;;2.17;;
25045;SDS011;13044;49.304;12.840;2023-07-22T08:13:41;3.95;;;2.60;;
25045;SDS011;13044;49.304;12.840;2023-07-22T08:16:10;3.35;;;2.85;;
25045;SDS011;13044;49.304;12.840;2023-07-22T08:18:39;4.80;;;2.80;;
25045;SDS011;13044;49.304;12.840;2023-07-22T08:21:06;2.20;;;2.00;;
25045;SDS011;13044;49.304;12.840;2023-07-22T08:23:34;2.92;;;2.15;;
25045;SDS011;13044;49.304;12.840;2023-07-22T08:26:03;2.67;;;2.35;;
25045;SDS011;13044;49.304;12.840;2023-07-22T08:28:32;3.13;;;2.30;;
25045;SDS011;13044;49.304;12.840;2023-07-22T08:31:00;2.47;;;2.28;;
25045;SDS011;13044;49.304;12.840;2023-07-22T08:33:28;2.40;;;2.15;;
25045;SDS011;13044;49.304;12.840;2023-07-22T08:36:07;2.10;;;1.92;;
25045;SDS011;13044;49.304;12.840;2023-07-22T08:38:35;2.50;;;2.30;;
25045;SDS011;13044;49.304;12.840;2023-07-22T08:41:02;3.75;;;2.35;;
25045;SDS011;13044;49.304;12.840;2023-07-22T08:43:29;3.22;;;2.80;;
25045;SDS011;13044;49.304;12.840;2023-07-22T08:46:00;3.85;;;2.30;;
25045;SDS011;13044;49.304;12.840;2023-07-22T08:48:31;2.63;;;2.20;;
25045;SDS011;13044;49.304;12.840;2023-07-22T08:51:18;3.92;;;2.03;;
25045;SDS011;13044;49.304;12.840;2023-07-22T08:53:46;5.40;;;2.45;;
25045;SDS011;13044;49.304;12.840;2023-07-22T08:56:33;2.15;;;1.92;;
25045;SDS011;13044;49.304;12.840;2023-07-22T08:59:02;2.40;;;2.20;;
25045;SDS011;13044;49.304;12.840;2023-07-22T09:01:32;2.65;;;2.40;;
25045;SDS011;13044;49.304;12.840;2023-07-22T09:04:02;4.22;;;1.95;;
25045;SDS011;13044;49.304;12.840;2023-07-22T09:06:30;2.58;;;2.13;;
25045;SDS011;13044;49.304;12.840;2023-07-22T09:08:58;2.00;;;1.80;;
25045;SDS011;13044;49.304;12.840;2023-07-22T09:11:26;3.10;;;2.08;;
25045;SDS011;13044;49.304;12.840;2023-07-22T09:13:53;2.30;;;2.10;;
25045;SDS011;13044;49.304;12.840;2023-07-22T09:16:20;2.40;;;1.88;;
25045;SDS011;13044;49.304;12.840;2023-07-22T09:18:48;2.85;;;2.10;;
25045;SDS011;13044;49.304;12.840;2023-07-22T09:21:15;2.17;;;1.77;;
25045;SDS011;13044;49.304;12.840;2023-07-22T09:23:42;2.72;;;2.03;;
25045;SDS011;13044;49.304;12.840;2023-07-22T09:26:12;3.63;;;2.15;;
25045;SDS011;13044;49.304;12.840;2023-07-22T09:31:24;3.17;;;1.80;;
25045;SDS011;13044;49.304;12.840;2023-07-22T09:33:52;1.83;;;1.58;;
25045;SDS011;13044;49.304;12.840;2023-07-22T09:36:20;1.98;;;1.88;;
25045;SDS011;13044;49.304;12.840;2023-07-22T09:39:00;2.38;;;1.70;;
25045;SDS011;13044;49.304;12.840;2023-07-22T09:41:30;3.43;;;1.90;;
25045;SDS011;13044;49.304;12.840;2023-07-22T09:44:04;1.88;;;1.67;;
25045;SDS011;13044;49.304;12.840;2023-07-22T09:46:36;2.20;;;1.90;;
25045;SDS011;13044;49.304;12.840;2023-07-22T09:49:04;2.97;;;2.38;;
25045;SDS011;13044;49.304;12.840;2023-07-22T09:51:38;1.85;;;1.75;;
25045;SDS011;13044;49.304;12.840;2023-07-22T09:54:26;4.38;;;2.00;;
25045;SDS011;13044;49.304;12.840;2023-07-22T09:56:55;3.00;;;2.20;;
25045;SDS011;13044;49.304;12.840;2023-07-22T09:59:22;2.25;;;1.85;;
25045;SDS011;13044;49.304;12.840;2023-07-22T10:01:50;2.20;;;2.00;;
25045;SDS011;13044;49.304;12.840;2023-07-22T10:04:18;3.47;;;2.03;;
25045;SDS011;13044;49.304;12.840;2023-07-22T10:06:49;2.10;;;1.85;;
25045;SDS011;13044;49.304;12.840;2023-07-22T10:09:16;2.75;;;1.88;;
25045;SDS011;13044;49.304;12.840;2023-07-22T10:11:44;2.30;;;2.10;;
25045;SDS011;13044;49.304;12.840;2023-07-22T10:14:11;2.33;;;2.00;;
25045;SDS011;13044;49.304;12.840;2023-07-22T10:16:40;4.97;;;1.80;;
25045;SDS011;13044;49.304;12.840;2023-07-22T10:19:07;2.10;;;2.00;;
25045;SDS011;13044;49.304;12.840;2023-07-22T10:21:36;2.10;;;1.90;;
25045;SDS011;13044;49.304;12.840;2023-07-22T10:24:04;2.67;;;1.67;;
25045;SDS011;13044;49.304;12.840;2023-07-22T10:26:33;2.22;;;2.03;;
25045;SDS011;13044;49.304;12.840;2023-07-22T10:29:12;2.78;;;1.80;;
25045;SDS011;13044;49.304;12.840;2023-07-22T10:31:40;2.55;;;2.10;;
25045;SDS011;13044;49.304;12.840;2023-07-22T10:34:07;2.83;;;2.00;;
25045;SDS011;13044;49.304;12.840;2023-07-22T10:36:34;2.00;;;1.80;;
25045;SDS011;13044;49.304;12.840;2023-07-22T10:39:02;3.10;;;2.00;;
25045;SDS011;13044;49.304;12.840;2023-07-22T10:41:32;3.28;;;1.80;;
25045;SDS011;13044;49.304;12.840;2023-07-22T10:43:59;2.35;;;1.67;;
25045;SDS011;13044;49.304;12.840;2023-07-22T10:46:31;2.22;;;1.80;;
25045;SDS011;13044;49.304;12.840;2023-07-22T10:49:06;2.58;;;2.03;;
25045;SDS011;13044;49.304;12.840;2023-07-22T10:51:49;2.60;;;2.15;;
25045;SDS011;13044;49.304;12.840;2023-07-22T10:54:31;2.55;;;2.03;;
25045;SDS011;13044;49.304;12.840;2023-07-22T10:59:52;2.47;;;2.28;;
25045;SDS011;13044;49.304;12.840;2023-07-22T11:02:28;2.67;;;2.08;;
25045;SDS011;13044;49.304;12.840;2023-07-22T11:04:57;4.38;;;2.30;;
25045;SDS011;13044;49.304;12.840;2023-07-22T11:07:32;2.33;;;1.95;;
25045;SDS011;13044;49.304;12.840;2023-07-22T11:10:13;2.30;;;2.10;;
25045;SDS011;13044;49.304;12.840;2023-07-22T11:12:43;2.40;;;2.20;;
25045;SDS011;13044;49.304;12.840;2023-07-22T11:15:12;2.30;;;2.10;;
25045;SDS011;13044;49.304;12.840;2023-07-22T11:17:42;3.45;;;2.42;;
25045;SDS011;13044;49.304;12.840;2023-07-22T11:20:09;2.17;;;1.98;;
25045;SDS011;13044;49.304;12.840;2023-07-22T11:22:40;2.83;;;2.13;;
25045;SDS011;13044;49.304;12.840;2023-07-22T11:25:07;2.85;;;2.28;;
25045;SDS011;13044;49.304;12.840;2023-07-22T11:27:35;2.67;;;2.17;;
25045;SDS011;13044;49.304;12.840;2023-07-22T11:30:02;3.30;;;2.00;;
25045;SDS011;13044;49.304;12.840;2023-07-22T11:32:31;1.90;;;1.80;;
25045;SDS011;13044;49.304;12.840;2023-07-22T11:34:59;2.30;;;2.10;;
25045;SDS011;13044;49.304;12.840;2023-07-22T11:37:29;2.08;;;1.88;;
25045;SDS011;13044;49.304;12.840;2023-07-22T11:40:00;3.38;;;2.13;;
25045;SDS011;13044;49.304;12.840;2023-07-22T11:42:28;2.35;;;2.05;;
25045;SDS011;13044;49.304;12.840;2023-07-22T11:44:55;2.17;;;1.98;;
25045;SDS011;13044;49.304;12.840;2023-07-22T11:47:28;2.10;;;1.90;;
25045;SDS011;13044;49.304;12.840;2023-07-22T11:49:57;2.83;;;1.67;;
25045;SDS011;13044;49.304;12.840;2023-07-22T11:52:25;2.20;;;2.00;;
25045;SDS011;13044;49.304;12.840;2023-07-22T11:54:52;3.83;;;2.35;;
25045;SDS011;13044;49.304;12.840;2023-07-22T11:57:20;2.50;;;2.30;;
25045;SDS011;13044;49.304;12.840;2023-07-22T11:59:50;2.58;;;2.03;;
25045;SDS011;13044;49.304;12.840;2023-07-22T12:02:23;2.65;;;2.00;;
25045;SDS011;13044;49.304;12.840;2023-07-22T12:12:47;3.28;;;2.05;;
25045;SDS011;13044;49.304;12.840;2023-07-22T12:15:17;3.25;;;2.10;;
25045;SDS011;13044;49.304;12.840;2023-07-22T12:17:48;2.50;;;2.22;;
25045;SDS011;13044;49.304;12.840;2023-07-22T12:22:57;2.25;;;1.85;;
25045;SDS011;13044;49.304;12.840;2023-07-22T12:25:25;1.88;;;1.75;;
25045;SDS011;13044;49.304;12.840;2023-07-22T12:27:52;2.00;;;1.90;;
25045;SDS011;13044;49.304;12.840;2023-07-22T12:30:20;3.83;;;2.20;;
25045;SDS011;13044;49.304;12.840;2023-07-22T12:32:47;2.67;;;2.10;;
25045;SDS011;13044;49.304;12.840;2023-07-22T12:35:15;2.15;;;1.90;;
25045;SDS011;13044;49.304;12.840;2023-07-22T12:37:42;5.07;;;1.60;;
25045;SDS011;13044;49.304;12.840;2023-07-22T12:40:09;2.92;;;1.90;;
25045;SDS011;13044;49.304;12.840;2023-07-22T12:42:40;2.58;;;2.13;;
25045;SDS011;13044;49.304;12.840;2023-07-22T12:45:07;3.47;;;2.30;;
25045;SDS011;13044;49.304;12.840;2023-07-22T12:47:35;2.38;;;2.17;;
25045;SDS011;13044;49.304;12.840;2023-07-22T12:50:03;2.42;;;2.00;;
25045;SDS011;13044;49.304;12.840;2023-07-22T12:52:34;4.55;;;2.03;;
25045;SDS011;13044;49.304;12.840;2023-07-22T12:55:01;4.03;;;2.33;;
25045;SDS011;13044;49.304;12.840;2023-07-22T12:57:28;2.97;;;2.00;;
25045;SDS011;13044;49.304;12.840;2023-07-22T12:59:54;2.15;;;1.95;;
25045;SDS011;13044;49.304;12.840;2023-07-22T13:02:21;2.50;;;1.77;;
25045;SDS011;13044;49.304;12.840;2023-07-22T13:04:49;3.88;;;2.20;;
25045;SDS011;13044;49.304;12.840;2023-07-22T13:07:16;2.20;;;2.00;;
25045;SDS011;13044;49.304;12.840;2023-07-22T13:09:43;3.92;;;2.20;;
25045;SDS011;13044;49.304;12.840;2023-07-22T13:12:12;3.67;;;2.15;;
25045;SDS011;13044;49.304;12.840;2023-07-22T13:14:39;2.33;;;2.13;;
25045;SDS011;13044;49.304;12.840;2023-07-22T13:17:06;1.63;;;1.52;;
25045;SDS011;13044;49.304;12.840;2023-07-22T13:19:34;2.55;;;2.08;;
25045;SDS011;13044;49.304;12.840;2023-07-22T13:22:01;2.08;;;1.83;;
25045;SDS011;13044;49.304;12.840;2023-07-22T13:24:27;2.45;;;1.80;;
25045;SDS011;13044;49.304;12.840;2023-07-22T13:26:55;2.10;;;1.90;;
25045;SDS011;13044;49.304;12.840;2023-07-22T13:29:22;2.08;;;1.90;;
25045;SDS011;13044;49.304;12.840;2023-07-22T13:31:49;5.03;;;2.20;;
25045;SDS011;13044;49.304;12.840;2023-07-22T13:34:16;2.33;;;2.10;;
25045;SDS011;13044;49.304;12.840;2023-07-22T13:36:43;2.13;;;1.92;;
25045;SDS011;13044;49.304;12.840;2023-07-22T13:39:09;6.68;;;2.03;;
25045;SDS011;13044;49.304;12.840;2023-07-22T13:41:36;6.80;;;1.90;;
25045;SDS011;13044;49.304;12.840;2023-07-22T13:44:03;2.67;;;2.10;;
25045;SDS011;13044;49.304;12.840;2023-07-22T13:46:31;4.90;;;2.22;;
25045;SDS011;13044;49.304;12.840;2023-07-22T13:48:58;2.30;;;2.10;;
25045;SDS011;13044;49.304;12.840;2023-07-22T13:51:25;3.53;;;2.10;;
25045;SDS011;13044;49.304;12.840;2023-07-22T13:53:52;2.30;;;2.10;;
25045;SDS011;13044;49.304;12.840;2023-07-22T13:56:20;2.10;;;1.90;;
25045;SDS011;13044;49.304;12.840;2023-07-22T13:58:48;4.57;;;2.15;;
25045;SDS011;13044;49.304;12.840;2023-07-22T14:01:15;1.77;;;1.67;;
25045;SDS011;13044;49.304;12.840;2023-07-22T14:03:43;6.35;;;1.92;;
25045;SDS011;13044;49.304;12.840;2023-07-22T14:06:09;2.38;;;1.90;;
25045;SDS011;13044;49.304;12.840;2023-07-22T14:08:36;7.10;;;2.20;;
25045;SDS011;13044;49.304;12.840;2023-07-22T14:11:05;2.33;;;2.13;;
25045;SDS011;13044;49.304;12.840;2023-07-22T14:13:32;2.33;;;2.10;;
25045;SDS011;13044;49.304;12.840;2023-07-22T14:15:59;1.85;;;1.75;;
25045;SDS011;13044;49.304;12.840;2023-07-22T14:18:45;3.50;;;1.90;;
25045;SDS011;13044;49.304;12.840;2023-07-22T14:21:12;2.25;;;2.00;;
25045;SDS011;13044;49.304;12.840;2023-07-22T14:23:39;2.22;;;2.03;;
25045;SDS011;13044;49.304;12.840;2023-07-22T14:26:07;2.35;;;1.80;;
25045;SDS011;13044;49.304;12.840;2023-07-22T14:28:33;1.95;;;1.75;;
25045;SDS011;13044;49.304;12.840;2023-07-22T14:31:00;2.38;;;2.08;;
25045;SDS011;13044;49.304;12.840;2023-07-22T14:33:27;2.47;;;1.73;;
25045;SDS011;13044;49.304;12.840;2023-07-22T14:35:55;2.08;;;1.98;;
25045;SDS011;13044;49.304;12.840;2023-07-22T14:38:22;2.08;;;1.88;;
25045;SDS011;13044;49.304;12.840;2023-07-22T14:40:49;2.97;;;2.40;;
25045;SDS011;13044;49.304;12.840;2023-07-22T14:43:16;2.22;;;2.03;;
25045;SDS011;13044;49.304;12.840;2023-07-22T14:45:47;2.10;;;1.90;;
25045;SDS011;13044;49.304;12.840;2023-07-22T14:48:14;2.70;;;1.80;;
25045;SDS011;13044;49.304;12.840;2023-07-22T14:50:41;1.73;;;1.63;;
25045;SDS011;13044;49.304;12.840;2023-07-22T14:53:08;2.45;;;1.95;;
25045;SDS011;13044;49.304;12.840;2023-07-22T14:55:35;4.80;;;1.70;;